sensor_id;sensor_type;location;lat;lon;timestamp;temperature;humidity
33863;DHT22;20158;51.436;-2.742;2022-12-07T00:01:59;6.10;61.40
33863;DHT22;20158;51.436;-2.742;2022-12-07T00:04:44;6.10;61.40
33863;DHT22;20158;51.436;-2.742;2022-12-07T00:07:28;6.00;61.30
33863;DHT22;20158;51.436;-2.742;2022-12-07T00:10:13;6.00;61.30
33863;DHT22;20158;51.436;-2.742;2022-12-07T00:12:57;5.90;61.20
33863;DHT22;20158;51.436;-2.742;2022-12-07T00:15:42;5.80;61.00
33863;DHT22;20158;51.436;-2.742;2022-12-07T00:18:27;5.80;61.10
33863;DHT22;20158;51.436;-2.742;2022-12-07T00:21:17;5.80;61.10
33863;DHT22;20158;51.436;-2.742;2022-12-07T00:24:03;5.80;61.20
33863;DHT22;20158;51.436;-2.742;2022-12-07T00:26:48;5.70;61.00
33863;DHT22;20158;51.436;-2.742;2022-12-07T00:29:32;5.60;60.90
33863;DHT22;20158;51.436;-2.742;2022-12-07T00:32:17;5.60;61.00
33863;DHT22;20158;51.436;-2.742;2022-12-07T00:35:01;5.50;60.90
33863;DHT22;20158;51.436;-2.742;2022-12-07T00:37:46;5.50;61.00
33863;DHT22;20158;51.436;-2.742;2022-12-07T00:40:30;5.40;60.80
33863;DHT22;20158;51.436;-2.742;2022-12-07T00:43:15;5.40;60.90
33863;DHT22;20158;51.436;-2.742;2022-12-07T00:46:00;5.40;61.00
33863;DHT22;20158;51.436;-2.742;2022-12-07T00:48:45;5.40;61.00
33863;DHT22;20158;51.436;-2.742;2022-12-07T00:51:29;5.30;60.90
33863;DHT22;20158;51.436;-2.742;2022-12-07T00:54:14;5.30;61.00
33863;DHT22;20158;51.436;-2.742;2022-12-07T00:56:58;5.30;61.00
33863;DHT22;20158;51.436;-2.742;2022-12-07T00:59:43;5.30;61.00
33863;DHT22;20158;51.436;-2.742;2022-12-07T01:02:30;5.30;61.00
33863;DHT22;20158;51.436;-2.742;2022-12-07T01:05:14;5.30;61.00
33863;DHT22;20158;51.436;-2.742;2022-12-07T01:07:59;5.30;61.10
33863;DHT22;20158;51.436;-2.742;2022-12-07T01:10:46;5.20;60.90
33863;DHT22;20158;51.436;-2.742;2022-12-07T01:13:31;5.20;61.00
33863;DHT22;20158;51.436;-2.742;2022-12-07T01:16:17;5.20;61.00
33863;DHT22;20158;51.436;-2.742;2022-12-07T01:19:02;5.20;61.00
33863;DHT22;20158;51.436;-2.742;2022-12-07T01:21:48;5.20;61.10
33863;DHT22;20158;51.436;-2.742;2022-12-07T01:24:33;5.20;61.10
33863;DHT22;20158;51.436;-2.742;2022-12-07T01:27:18;5.10;61.00
33863;DHT22;20158;51.436;-2.742;2022-12-07T01:30:04;5.10;61.00
33863;DHT22;20158;51.436;-2.742;2022-12-07T01:32:49;5.00;60.90
33863;DHT22;20158;51.436;-2.742;2022-12-07T01:35:33;5.00;60.90
33863;DHT22;20158;51.436;-2.742;2022-12-07T01:38:18;5.00;61.00
33863;DHT22;20158;51.436;-2.742;2022-12-07T01:41:03;5.00;61.00
33863;DHT22;20158;51.436;-2.742;2022-12-07T01:46:53;4.90;61.00
33863;DHT22;20158;51.436;-2.742;2022-12-07T01:49:44;4.90;61.00
33863;DHT22;20158;51.436;-2.742;2022-12-07T01:52:31;4.90;61.10
33863;DHT22;20158;51.436;-2.742;2022-12-07T01:55:17;4.90;61.10
33863;DHT22;20158;51.436;-2.742;2022-12-07T01:58:02;4.90;61.10
33863;DHT22;20158;51.436;-2.742;2022-12-07T02:00:48;4.90;61.20
33863;DHT22;20158;51.436;-2.742;2022-12-07T02:03:38;4.80;61.00
33863;DHT22;20158;51.436;-2.742;2022-12-07T02:06:24;4.80;61.00
33863;DHT22;20158;51.436;-2.742;2022-12-07T02:09:09;4.80;61.00
33863;DHT22;20158;51.436;-2.742;2022-12-07T02:11:54;4.80;61.10
33863;DHT22;20158;51.436;-2.742;2022-12-07T02:14:39;4.80;61.10
33863;DHT22;20158;51.436;-2.742;2022-12-07T02:17:49;4.70;61.00
33863;DHT22;20158;51.436;-2.742;2022-12-07T02:20:43;4.70;61.00
33863;DHT22;20158;51.436;-2.742;2022-12-07T02:30:19;4.70;61.10
33863;DHT22;20158;51.436;-2.742;2022-12-07T02:33:14;4.70;61.10
33863;DHT22;20158;51.436;-2.742;2022-12-07T02:36:13;4.60;61.00
33863;DHT22;20158;51.436;-2.742;2022-12-07T02:39:27;4.60;61.00
33863;DHT22;20158;51.436;-2.742;2022-12-07T02:42:18;4.60;61.10
33863;DHT22;20158;51.436;-2.742;2022-12-07T02:45:06;4.60;61.10
33863;DHT22;20158;51.436;-2.742;2022-12-07T02:47:53;4.60;61.10
33863;DHT22;20158;51.436;-2.742;2022-12-07T02:50:45;4.60;61.10
33863;DHT22;20158;51.436;-2.742;2022-12-07T02:53:34;4.60;61.20
33863;DHT22;20158;51.436;-2.742;2022-12-07T02:59:59;4.60;61.30
33863;DHT22;20158;51.436;-2.742;2022-12-07T03:02:59;4.50;61.10
33863;DHT22;20158;51.436;-2.742;2022-12-07T03:06:07;4.50;61.10
33863;DHT22;20158;51.436;-2.742;2022-12-07T03:09:14;4.50;61.10
33863;DHT22;20158;51.436;-2.742;2022-12-07T03:12:10;4.50;61.10
33863;DHT22;20158;51.436;-2.742;2022-12-07T03:15:04;4.50;61.20
33863;DHT22;20158;51.436;-2.742;2022-12-07T03:17:51;4.50;61.20
33863;DHT22;20158;51.436;-2.742;2022-12-07T03:20:37;4.50;61.20
33863;DHT22;20158;51.436;-2.742;2022-12-07T03:23:23;4.50;61.20
33863;DHT22;20158;51.436;-2.742;2022-12-07T03:26:11;4.50;61.30
33863;DHT22;20158;51.436;-2.742;2022-12-07T03:29:02;4.50;61.30
33863;DHT22;20158;51.436;-2.742;2022-12-07T03:32:16;4.50;61.40
33863;DHT22;20158;51.436;-2.742;2022-12-07T03:35:01;4.50;61.40
33863;DHT22;20158;51.436;-2.742;2022-12-07T03:41:05;4.50;61.40
33863;DHT22;20158;51.436;-2.742;2022-12-07T03:43:54;4.50;61.40
33863;DHT22;20158;51.436;-2.742;2022-12-07T03:47:29;4.50;61.40
33863;DHT22;20158;51.436;-2.742;2022-12-07T03:50:28;4.50;61.50
33863;DHT22;20158;51.436;-2.742;2022-12-07T03:53:20;4.40;61.30
33863;DHT22;20158;51.436;-2.742;2022-12-07T03:56:07;4.40;61.30
33863;DHT22;20158;51.436;-2.742;2022-12-07T03:58:54;4.40;61.40
33863;DHT22;20158;51.436;-2.742;2022-12-07T04:01:38;4.30;61.20
33863;DHT22;20158;51.436;-2.742;2022-12-07T04:04:24;4.30;61.30
33863;DHT22;20158;51.436;-2.742;2022-12-07T04:07:09;4.30;61.40
33863;DHT22;20158;51.436;-2.742;2022-12-07T04:09:53;4.30;61.40
33863;DHT22;20158;51.436;-2.742;2022-12-07T04:12:39;4.20;61.30
33863;DHT22;20158;51.436;-2.742;2022-12-07T04:15:23;4.20;61.20
33863;DHT22;20158;51.436;-2.742;2022-12-07T04:18:08;4.20;61.30
33863;DHT22;20158;51.436;-2.742;2022-12-07T04:20:52;4.20;61.40
33863;DHT22;20158;51.436;-2.742;2022-12-07T04:23:37;4.10;61.20
33863;DHT22;20158;51.436;-2.742;2022-12-07T04:26:21;4.10;61.30
33863;DHT22;20158;51.436;-2.742;2022-12-07T04:29:06;4.00;61.10
33863;DHT22;20158;51.436;-2.742;2022-12-07T04:31:51;3.90;61.20
33863;DHT22;20158;51.436;-2.742;2022-12-07T04:34:35;3.90;61.10
33863;DHT22;20158;51.436;-2.742;2022-12-07T04:37:20;3.90;61.10
33863;DHT22;20158;51.436;-2.742;2022-12-07T04:40:06;3.90;61.20
33863;DHT22;20158;51.436;-2.742;2022-12-07T04:42:51;3.80;61.00
33863;DHT22;20158;51.436;-2.742;2022-12-07T04:45:36;3.80;61.10
33863;DHT22;20158;51.436;-2.742;2022-12-07T04:48:20;3.80;61.20
33863;DHT22;20158;51.436;-2.742;2022-12-07T04:51:05;3.80;61.10
33863;DHT22;20158;51.436;-2.742;2022-12-07T04:53:50;3.70;61.00
33863;DHT22;20158;51.436;-2.742;2022-12-07T04:56:34;3.70;61.20
33863;DHT22;20158;51.436;-2.742;2022-12-07T04:59:19;3.70;61.00
33863;DHT22;20158;51.436;-2.742;2022-12-07T05:02:03;3.70;61.10
33863;DHT22;20158;51.436;-2.742;2022-12-07T05:04:48;3.70;61.10
33863;DHT22;20158;51.436;-2.742;2022-12-07T05:07:33;3.60;60.90
33863;DHT22;20158;51.436;-2.742;2022-12-07T05:10:17;3.60;61.00
33863;DHT22;20158;51.436;-2.742;2022-12-07T05:13:02;3.60;61.00
33863;DHT22;20158;51.436;-2.742;2022-12-07T05:15:47;3.60;61.00
33863;DHT22;20158;51.436;-2.742;2022-12-07T05:18:32;3.60;61.00
33863;DHT22;20158;51.436;-2.742;2022-12-07T05:21:17;3.60;61.00
33863;DHT22;20158;51.436;-2.742;2022-12-07T05:24:02;3.60;61.00
33863;DHT22;20158;51.436;-2.742;2022-12-07T05:26:46;3.60;61.00
33863;DHT22;20158;51.436;-2.742;2022-12-07T05:29:31;3.60;61.10
33863;DHT22;20158;51.436;-2.742;2022-12-07T05:32:16;3.60;61.10
33863;DHT22;20158;51.436;-2.742;2022-12-07T05:35:00;3.50;61.00
33863;DHT22;20158;51.436;-2.742;2022-12-07T05:37:45;3.60;61.20
33863;DHT22;20158;51.436;-2.742;2022-12-07T05:40:30;3.60;61.10
33863;DHT22;20158;51.436;-2.742;2022-12-07T05:43:14;3.60;61.20
33863;DHT22;20158;51.436;-2.742;2022-12-07T05:45:59;3.60;61.20
33863;DHT22;20158;51.436;-2.742;2022-12-07T05:48:43;3.60;61.20
33863;DHT22;20158;51.436;-2.742;2022-12-07T05:51:28;3.50;61.00
33863;DHT22;20158;51.436;-2.742;2022-12-07T05:54:13;3.50;61.00
33863;DHT22;20158;51.436;-2.742;2022-12-07T05:56:58;3.50;61.00
33863;DHT22;20158;51.436;-2.742;2022-12-07T05:59:42;3.50;61.10
33863;DHT22;20158;51.436;-2.742;2022-12-07T06:02:27;3.50;61.10
33863;DHT22;20158;51.436;-2.742;2022-12-07T06:05:12;3.40;61.00
33863;DHT22;20158;51.436;-2.742;2022-12-07T06:07:56;3.40;61.00
33863;DHT22;20158;51.436;-2.742;2022-12-07T06:10:41;3.40;61.00
33863;DHT22;20158;51.436;-2.742;2022-12-07T06:13:26;3.30;60.90
33863;DHT22;20158;51.436;-2.742;2022-12-07T06:16:11;3.30;61.00
33863;DHT22;20158;51.436;-2.742;2022-12-07T06:18:56;3.30;61.60
33863;DHT22;20158;51.436;-2.742;2022-12-07T06:21:40;3.30;61.30
33863;DHT22;20158;51.436;-2.742;2022-12-07T06:24:25;3.30;61.80
33863;DHT22;20158;51.436;-2.742;2022-12-07T06:27:10;3.40;61.40
33863;DHT22;20158;51.436;-2.742;2022-12-07T06:29:54;3.40;61.40
33863;DHT22;20158;51.436;-2.742;2022-12-07T06:32:39;3.40;61.40
33863;DHT22;20158;51.436;-2.742;2022-12-07T06:35:23;3.40;61.40
33863;DHT22;20158;51.436;-2.742;2022-12-07T06:38:08;3.40;61.40
33863;DHT22;20158;51.436;-2.742;2022-12-07T06:40:53;3.40;61.50
33863;DHT22;20158;51.436;-2.742;2022-12-07T06:43:37;3.40;61.50
33863;DHT22;20158;51.436;-2.742;2022-12-07T06:46:23;3.40;61.50
33863;DHT22;20158;51.436;-2.742;2022-12-07T06:49:08;3.40;61.60
33863;DHT22;20158;51.436;-2.742;2022-12-07T06:51:52;3.30;61.40
33863;DHT22;20158;51.436;-2.742;2022-12-07T06:54:37;3.30;61.50
33863;DHT22;20158;51.436;-2.742;2022-12-07T06:57:22;3.30;61.50
33863;DHT22;20158;51.436;-2.742;2022-12-07T07:00:07;3.30;61.60
33863;DHT22;20158;51.436;-2.742;2022-12-07T07:02:52;3.20;61.50
33863;DHT22;20158;51.436;-2.742;2022-12-07T07:05:37;3.20;61.60
33863;DHT22;20158;51.436;-2.742;2022-12-07T07:08:22;3.20;61.60
33863;DHT22;20158;51.436;-2.742;2022-12-07T07:11:07;3.20;62.10
33863;DHT22;20158;51.436;-2.742;2022-12-07T07:13:52;3.30;62.20
33863;DHT22;20158;51.436;-2.742;2022-12-07T07:16:40;3.40;62.60
33863;DHT22;20158;51.436;-2.742;2022-12-07T07:19:25;3.60;62.60
33863;DHT22;20158;51.436;-2.742;2022-12-07T07:22:09;3.70;63.00
33863;DHT22;20158;51.436;-2.742;2022-12-07T07:24:55;3.70;62.40
33863;DHT22;20158;51.436;-2.742;2022-12-07T07:27:39;3.70;62.40
33863;DHT22;20158;51.436;-2.742;2022-12-07T07:30:24;3.70;62.40
33863;DHT22;20158;51.436;-2.742;2022-12-07T07:33:10;3.60;62.40
33863;DHT22;20158;51.436;-2.742;2022-12-07T07:35:55;3.50;62.30
33863;DHT22;20158;51.436;-2.742;2022-12-07T07:38:40;3.50;62.50
33863;DHT22;20158;51.436;-2.742;2022-12-07T07:41:24;3.40;62.30
33863;DHT22;20158;51.436;-2.742;2022-12-07T07:44:09;3.30;62.20
33863;DHT22;20158;51.436;-2.742;2022-12-07T07:46:53;3.30;62.30
33863;DHT22;20158;51.436;-2.742;2022-12-07T07:49:38;3.30;62.30
33863;DHT22;20158;51.436;-2.742;2022-12-07T07:52:22;3.20;62.20
33863;DHT22;20158;51.436;-2.742;2022-12-07T07:55:08;3.20;62.20
33863;DHT22;20158;51.436;-2.742;2022-12-07T07:57:53;3.10;62.10
33863;DHT22;20158;51.436;-2.742;2022-12-07T08:00:38;3.00;62.40
33863;DHT22;20158;51.436;-2.742;2022-12-07T08:03:22;3.00;61.90
33863;DHT22;20158;51.436;-2.742;2022-12-07T08:06:07;2.90;61.80
33863;DHT22;20158;51.436;-2.742;2022-12-07T08:08:52;2.90;61.80
33863;DHT22;20158;51.436;-2.742;2022-12-07T08:11:37;2.90;61.80
33863;DHT22;20158;51.436;-2.742;2022-12-07T08:14:21;2.80;61.70
33863;DHT22;20158;51.436;-2.742;2022-12-07T08:17:06;2.80;61.70
33863;DHT22;20158;51.436;-2.742;2022-12-07T08:19:50;2.70;61.50
33863;DHT22;20158;51.436;-2.742;2022-12-07T08:22:35;2.70;61.50
33863;DHT22;20158;51.436;-2.742;2022-12-07T08:25:20;2.70;61.50
33863;DHT22;20158;51.436;-2.742;2022-12-07T08:28:05;2.60;61.40
33863;DHT22;20158;51.436;-2.742;2022-12-07T08:30:50;2.60;61.40
33863;DHT22;20158;51.436;-2.742;2022-12-07T08:33:35;2.60;61.40
33863;DHT22;20158;51.436;-2.742;2022-12-07T08:36:19;2.60;61.30
33863;DHT22;20158;51.436;-2.742;2022-12-07T08:39:05;2.50;61.20
33863;DHT22;20158;51.436;-2.742;2022-12-07T08:41:50;2.50;61.10
33863;DHT22;20158;51.436;-2.742;2022-12-07T08:44:35;2.60;61.30
33863;DHT22;20158;51.436;-2.742;2022-12-07T08:47:19;2.50;61.10
33863;DHT22;20158;51.436;-2.742;2022-12-07T08:50:06;2.60;61.20
33863;DHT22;20158;51.436;-2.742;2022-12-07T08:52:54;2.50;61.00
33863;DHT22;20158;51.436;-2.742;2022-12-07T08:55:39;2.50;61.00
33863;DHT22;20158;51.436;-2.742;2022-12-07T08:58:24;2.50;60.90
33863;DHT22;20158;51.436;-2.742;2022-12-07T09:01:08;2.50;60.90
33863;DHT22;20158;51.436;-2.742;2022-12-07T09:03:53;2.50;60.80
33863;DHT22;20158;51.436;-2.742;2022-12-07T09:06:38;2.50;60.80
33863;DHT22;20158;51.436;-2.742;2022-12-07T09:09:22;2.50;60.80
33863;DHT22;20158;51.436;-2.742;2022-12-07T09:12:07;2.50;60.70
33863;DHT22;20158;51.436;-2.742;2022-12-07T09:14:52;2.50;60.70
33863;DHT22;20158;51.436;-2.742;2022-12-07T09:17:36;2.50;60.70
33863;DHT22;20158;51.436;-2.742;2022-12-07T09:20:22;2.50;60.70
33863;DHT22;20158;51.436;-2.742;2022-12-07T09:23:07;2.50;60.60
33863;DHT22;20158;51.436;-2.742;2022-12-07T09:25:51;2.50;60.60
33863;DHT22;20158;51.436;-2.742;2022-12-07T09:28:36;2.50;60.60
33863;DHT22;20158;51.436;-2.742;2022-12-07T09:31:20;2.50;60.60
33863;DHT22;20158;51.436;-2.742;2022-12-07T09:34:05;2.60;60.70
33863;DHT22;20158;51.436;-2.742;2022-12-07T09:36:50;2.50;60.50
33863;DHT22;20158;51.436;-2.742;2022-12-07T09:39:38;2.60;60.60
33863;DHT22;20158;51.436;-2.742;2022-12-07T09:42:38;2.60;61.10
33863;DHT22;20158;51.436;-2.742;2022-12-07T09:45:34;2.60;60.60
33863;DHT22;20158;51.436;-2.742;2022-12-07T09:48:32;2.60;60.50
33863;DHT22;20158;51.436;-2.742;2022-12-07T09:51:19;2.70;60.60
33863;DHT22;20158;51.436;-2.742;2022-12-07T09:54:04;2.70;60.60
33863;DHT22;20158;51.436;-2.742;2022-12-07T09:56:49;2.70;60.50
33863;DHT22;20158;51.436;-2.742;2022-12-07T09:59:34;2.70;60.50
33863;DHT22;20158;51.436;-2.742;2022-12-07T10:02:38;2.70;60.50
33863;DHT22;20158;51.436;-2.742;2022-12-07T10:05:37;2.80;60.60
33863;DHT22;20158;51.436;-2.742;2022-12-07T10:08:22;2.80;60.50
33863;DHT22;20158;51.436;-2.742;2022-12-07T10:11:09;2.80;60.50
33863;DHT22;20158;51.436;-2.742;2022-12-07T10:13:54;2.80;61.00
33863;DHT22;20158;51.436;-2.742;2022-12-07T10:16:41;2.80;60.50
33863;DHT22;20158;51.436;-2.742;2022-12-07T10:19:31;2.90;60.70
33863;DHT22;20158;51.436;-2.742;2022-12-07T10:22:16;2.80;60.50
33863;DHT22;20158;51.436;-2.742;2022-12-07T10:25:08;2.90;60.70
33863;DHT22;20158;51.436;-2.742;2022-12-07T10:30:59;3.00;60.90
33863;DHT22;20158;51.436;-2.742;2022-12-07T10:33:57;3.00;60.70
33863;DHT22;20158;51.436;-2.742;2022-12-07T10:36:42;3.00;60.70
33863;DHT22;20158;51.436;-2.742;2022-12-07T10:39:26;3.10;60.80
33863;DHT22;20158;51.436;-2.742;2022-12-07T10:42:29;3.10;60.80
33863;DHT22;20158;51.436;-2.742;2022-12-07T10:45:15;3.20;61.00
33863;DHT22;20158;51.436;-2.742;2022-12-07T10:48:12;3.20;60.90
33863;DHT22;20158;51.436;-2.742;2022-12-07T10:51:22;3.30;61.00
33863;DHT22;20158;51.436;-2.742;2022-12-07T10:54:40;3.40;61.00
33863;DHT22;20158;51.436;-2.742;2022-12-07T11:00:20;3.70;61.10
33863;DHT22;20158;51.436;-2.742;2022-12-07T11:06:27;4.10;61.30
33863;DHT22;20158;51.436;-2.742;2022-12-07T11:12:26;4.40;61.40
33863;DHT22;20158;51.436;-2.742;2022-12-07T11:15:28;4.50;61.40
33863;DHT22;20158;51.436;-2.742;2022-12-07T11:18:24;4.70;61.60
33863;DHT22;20158;51.436;-2.742;2022-12-07T11:24:16;4.90;61.50
33863;DHT22;20158;51.436;-2.742;2022-12-07T11:33:17;5.40;61.80
33863;DHT22;20158;51.436;-2.742;2022-12-07T11:42:30;5.80;62.00
33863;DHT22;20158;51.436;-2.742;2022-12-07T11:48:33;6.00;62.00
33863;DHT22;20158;51.436;-2.742;2022-12-07T11:51:21;6.10;62.10
33863;DHT22;20158;51.436;-2.742;2022-12-07T11:54:16;6.10;62.00
33863;DHT22;20158;51.436;-2.742;2022-12-07T11:57:33;6.30;62.40
33863;DHT22;20158;51.436;-2.742;2022-12-07T12:00:16;6.50;62.70
33863;DHT22;20158;51.436;-2.742;2022-12-07T12:03:15;6.70;62.80
33863;DHT22;20158;51.436;-2.742;2022-12-07T12:06:01;6.90;63.00
33863;DHT22;20158;51.436;-2.742;2022-12-07T12:21:19;7.30;63.00
33863;DHT22;20158;51.436;-2.742;2022-12-07T12:24:15;7.40;63.20
33863;DHT22;20158;51.436;-2.742;2022-12-07T12:27:05;7.40;63.10
33863;DHT22;20158;51.436;-2.742;2022-12-07T12:29:54;7.40;63.10
33863;DHT22;20158;51.436;-2.742;2022-12-07T12:32:41;7.50;63.20
33863;DHT22;20158;51.436;-2.742;2022-12-07T12:35:34;7.50;63.10
33863;DHT22;20158;51.436;-2.742;2022-12-07T12:45:17;7.50;63.00
33863;DHT22;20158;51.436;-2.742;2022-12-07T12:51:37;7.60;63.00
33863;DHT22;20158;51.436;-2.742;2022-12-07T12:54:31;7.60;63.00
33863;DHT22;20158;51.436;-2.742;2022-12-07T12:57:35;7.60;63.00
33863;DHT22;20158;51.436;-2.742;2022-12-07T13:00:22;7.60;62.80
33863;DHT22;20158;51.436;-2.742;2022-12-07T13:03:27;7.60;62.80
33863;DHT22;20158;51.436;-2.742;2022-12-07T13:06:20;7.60;62.70
33863;DHT22;20158;51.436;-2.742;2022-12-07T13:09:21;7.60;62.60
33863;DHT22;20158;51.436;-2.742;2022-12-07T13:12:13;7.70;62.70
33863;DHT22;20158;51.436;-2.742;2022-12-07T13:14:58;7.70;62.70
33863;DHT22;20158;51.436;-2.742;2022-12-07T13:20:48;7.70;62.50
33863;DHT22;20158;51.436;-2.742;2022-12-07T13:29:18;7.80;62.20
33863;DHT22;20158;51.436;-2.742;2022-12-07T13:32:27;7.90;62.30
33863;DHT22;20158;51.436;-2.742;2022-12-07T13:35:34;7.90;62.10
33863;DHT22;20158;51.436;-2.742;2022-12-07T13:38:27;7.90;62.00
33863;DHT22;20158;51.436;-2.742;2022-12-07T13:41:17;8.00;62.20
33863;DHT22;20158;51.436;-2.742;2022-12-07T13:44:09;8.00;62.10
33863;DHT22;20158;51.436;-2.742;2022-12-07T13:49:54;8.00;61.80
33863;DHT22;20158;51.436;-2.742;2022-12-07T13:52:44;8.00;61.80
33863;DHT22;20158;51.436;-2.742;2022-12-07T13:55:29;8.00;61.70
33863;DHT22;20158;51.436;-2.742;2022-12-07T13:58:14;8.00;61.60
33863;DHT22;20158;51.436;-2.742;2022-12-07T14:00:59;8.00;61.50
33863;DHT22;20158;51.436;-2.742;2022-12-07T14:03:44;8.00;61.40
33863;DHT22;20158;51.436;-2.742;2022-12-07T14:06:28;8.10;61.50
33863;DHT22;20158;51.436;-2.742;2022-12-07T14:09:25;8.10;61.40
33863;DHT22;20158;51.436;-2.742;2022-12-07T14:12:12;8.10;61.20
33863;DHT22;20158;51.436;-2.742;2022-12-07T14:14:58;8.10;61.20
33863;DHT22;20158;51.436;-2.742;2022-12-07T14:17:51;8.10;61.10
33863;DHT22;20158;51.436;-2.742;2022-12-07T14:20:41;8.10;61.00
33863;DHT22;20158;51.436;-2.742;2022-12-07T14:23:26;8.10;61.00
33863;DHT22;20158;51.436;-2.742;2022-12-07T14:26:18;8.10;60.80
33863;DHT22;20158;51.436;-2.742;2022-12-07T14:32:19;8.10;60.50
33863;DHT22;20158;51.436;-2.742;2022-12-07T14:35:13;8.10;60.50
33863;DHT22;20158;51.436;-2.742;2022-12-07T14:37:58;8.20;60.50
33863;DHT22;20158;51.436;-2.742;2022-12-07T14:40:42;8.20;60.50
33863;DHT22;20158;51.436;-2.742;2022-12-07T14:43:27;8.10;60.20
33863;DHT22;20158;51.436;-2.742;2022-12-07T14:46:11;8.10;60.10
33863;DHT22;20158;51.436;-2.742;2022-12-07T14:48:56;8.10;60.10
33863;DHT22;20158;51.436;-2.742;2022-12-07T14:51:42;8.10;60.00
33863;DHT22;20158;51.436;-2.742;2022-12-07T14:54:31;8.10;60.00
33863;DHT22;20158;51.436;-2.742;2022-12-07T14:57:16;8.10;60.00
33863;DHT22;20158;51.436;-2.742;2022-12-07T15:00:00;8.00;59.80
33863;DHT22;20158;51.436;-2.742;2022-12-07T15:02:46;8.00;59.80
33863;DHT22;20158;51.436;-2.742;2022-12-07T15:05:31;8.00;59.70
33863;DHT22;20158;51.436;-2.742;2022-12-07T15:08:15;8.00;59.70
33863;DHT22;20158;51.436;-2.742;2022-12-07T15:11:00;7.90;59.50
33863;DHT22;20158;51.436;-2.742;2022-12-07T15:13:44;7.90;59.40
33863;DHT22;20158;51.436;-2.742;2022-12-07T15:16:47;7.90;59.40
33863;DHT22;20158;51.436;-2.742;2022-12-07T15:19:32;7.80;59.20
33863;DHT22;20158;51.436;-2.742;2022-12-07T15:22:17;7.80;59.20
33863;DHT22;20158;51.436;-2.742;2022-12-07T15:25:01;7.70;59.10
33863;DHT22;20158;51.436;-2.742;2022-12-07T15:27:47;7.70;59.10
33863;DHT22;20158;51.436;-2.742;2022-12-07T15:30:32;7.70;59.10
33863;DHT22;20158;51.436;-2.742;2022-12-07T15:33:17;7.60;58.90
33863;DHT22;20158;51.436;-2.742;2022-12-07T15:36:01;7.50;58.80
33863;DHT22;20158;51.436;-2.742;2022-12-07T15:38:46;7.50;58.80
33863;DHT22;20158;51.436;-2.742;2022-12-07T15:41:30;7.50;58.80
33863;DHT22;20158;51.436;-2.742;2022-12-07T15:44:15;7.50;58.90
33863;DHT22;20158;51.436;-2.742;2022-12-07T15:47:18;7.40;58.70
33863;DHT22;20158;51.436;-2.742;2022-12-07T15:50:08;7.30;58.70
33863;DHT22;20158;51.436;-2.742;2022-12-07T15:52:53;7.20;58.50
33863;DHT22;20158;51.436;-2.742;2022-12-07T15:55:40;7.20;58.60
33863;DHT22;20158;51.436;-2.742;2022-12-07T15:58:25;7.10;58.50
33863;DHT22;20158;51.436;-2.742;2022-12-07T16:01:14;7.00;58.40
33863;DHT22;20158;51.436;-2.742;2022-12-07T16:03:59;6.90;58.40
33863;DHT22;20158;51.436;-2.742;2022-12-07T16:06:44;6.90;58.60
33863;DHT22;20158;51.436;-2.742;2022-12-07T16:09:28;6.70;58.30
33863;DHT22;20158;51.436;-2.742;2022-12-07T16:12:14;6.60;58.80
33863;DHT22;20158;51.436;-2.742;2022-12-07T16:14:58;6.60;58.40
33863;DHT22;20158;51.436;-2.742;2022-12-07T16:17:42;6.50;58.40
33863;DHT22;20158;51.436;-2.742;2022-12-07T16:20:27;6.40;58.30
33863;DHT22;20158;51.436;-2.742;2022-12-07T16:23:12;6.30;58.30
33863;DHT22;20158;51.436;-2.742;2022-12-07T16:26:24;6.20;58.20
33863;DHT22;20158;51.436;-2.742;2022-12-07T16:29:11;6.10;58.10
33863;DHT22;20158;51.436;-2.742;2022-12-07T16:31:56;6.00;58.10
33863;DHT22;20158;51.436;-2.742;2022-12-07T16:34:40;6.00;58.20
33863;DHT22;20158;51.436;-2.742;2022-12-07T16:37:25;5.90;58.10
33863;DHT22;20158;51.436;-2.742;2022-12-07T16:40:10;5.80;58.10
33863;DHT22;20158;51.436;-2.742;2022-12-07T16:42:55;5.70;58.00
33863;DHT22;20158;51.436;-2.742;2022-12-07T16:45:39;5.60;58.00
33863;DHT22;20158;51.436;-2.742;2022-12-07T16:48:24;5.50;57.90
33863;DHT22;20158;51.436;-2.742;2022-12-07T16:51:10;5.50;58.00
33863;DHT22;20158;51.436;-2.742;2022-12-07T16:53:55;5.40;57.90
33863;DHT22;20158;51.436;-2.742;2022-12-07T16:56:40;5.30;57.90
33863;DHT22;20158;51.436;-2.742;2022-12-07T16:59:25;5.20;57.90
33863;DHT22;20158;51.436;-2.742;2022-12-07T17:02:11;5.10;57.80
33863;DHT22;20158;51.436;-2.742;2022-12-07T17:04:56;5.10;58.30
33863;DHT22;20158;51.436;-2.742;2022-12-07T17:07:40;5.10;58.50
33863;DHT22;20158;51.436;-2.742;2022-12-07T17:10:25;5.10;58.50
33863;DHT22;20158;51.436;-2.742;2022-12-07T17:13:10;5.10;58.50
33863;DHT22;20158;51.436;-2.742;2022-12-07T17:16:13;5.00;58.50
33863;DHT22;20158;51.436;-2.742;2022-12-07T17:18:58;5.00;58.50
33863;DHT22;20158;51.436;-2.742;2022-12-07T17:21:43;4.80;58.10
33863;DHT22;20158;51.436;-2.742;2022-12-07T17:24:28;4.80;58.20
33863;DHT22;20158;51.436;-2.742;2022-12-07T17:27:12;4.70;58.20
33863;DHT22;20158;51.436;-2.742;2022-12-07T17:29:57;4.70;58.90
33863;DHT22;20158;51.436;-2.742;2022-12-07T17:32:41;4.80;59.20
33863;DHT22;20158;51.436;-2.742;2022-12-07T17:35:27;4.80;59.20
33863;DHT22;20158;51.436;-2.742;2022-12-07T17:38:12;4.80;59.30
33863;DHT22;20158;51.436;-2.742;2022-12-07T17:40:56;4.70;59.20
33863;DHT22;20158;51.436;-2.742;2022-12-07T17:43:41;4.60;59.10
33863;DHT22;20158;51.436;-2.742;2022-12-07T17:46:26;4.50;59.10
33863;DHT22;20158;51.436;-2.742;2022-12-07T17:49:11;4.50;59.40
33863;DHT22;20158;51.436;-2.742;2022-12-07T17:51:55;4.50;59.50
33863;DHT22;20158;51.436;-2.742;2022-12-07T17:54:59;4.50;59.60
33863;DHT22;20158;51.436;-2.742;2022-12-07T17:57:43;4.40;59.40
33863;DHT22;20158;51.436;-2.742;2022-12-07T18:00:29;4.40;59.30
33863;DHT22;20158;51.436;-2.742;2022-12-07T18:03:14;4.40;59.40
33863;DHT22;20158;51.436;-2.742;2022-12-07T18:05:59;4.30;59.30
33863;DHT22;20158;51.436;-2.742;2022-12-07T18:08:43;4.20;59.20
33863;DHT22;20158;51.436;-2.742;2022-12-07T18:11:28;4.20;59.20
33863;DHT22;20158;51.436;-2.742;2022-12-07T18:14:13;4.10;59.10
33863;DHT22;20158;51.436;-2.742;2022-12-07T18:16:58;4.00;59.00
33863;DHT22;20158;51.436;-2.742;2022-12-07T18:19:42;4.00;59.20
33863;DHT22;20158;51.436;-2.742;2022-12-07T18:22:27;3.90;59.10
33863;DHT22;20158;51.436;-2.742;2022-12-07T18:25:12;3.80;59.00
33863;DHT22;20158;51.436;-2.742;2022-12-07T18:27:56;3.80;59.10
33863;DHT22;20158;51.436;-2.742;2022-12-07T18:30:41;3.70;58.90
33863;DHT22;20158;51.436;-2.742;2022-12-07T18:33:26;3.60;58.80
33863;DHT22;20158;51.436;-2.742;2022-12-07T18:36:11;3.60;58.90
33863;DHT22;20158;51.436;-2.742;2022-12-07T18:38:56;3.50;58.70
33863;DHT22;20158;51.436;-2.742;2022-12-07T18:41:41;3.50;58.70
33863;DHT22;20158;51.436;-2.742;2022-12-07T18:44:25;3.50;58.70
33863;DHT22;20158;51.436;-2.742;2022-12-07T18:47:10;3.40;58.60
33863;DHT22;20158;51.436;-2.742;2022-12-07T18:49:54;3.40;58.70
33863;DHT22;20158;51.436;-2.742;2022-12-07T18:52:39;3.30;58.50
33863;DHT22;20158;51.436;-2.742;2022-12-07T18:55:25;3.30;58.60
33863;DHT22;20158;51.436;-2.742;2022-12-07T18:58:10;3.30;58.60
33863;DHT22;20158;51.436;-2.742;2022-12-07T19:00:55;3.20;58.50
33863;DHT22;20158;51.436;-2.742;2022-12-07T19:03:39;3.20;58.50